createdAt,value
2018-08-28T00:00:46.814Z,13.27
2018-08-28T00:03:18.769Z,12.40
2018-08-28T00:05:49.178Z,11.83
2018-08-28T00:08:20.075Z,11.43
2018-08-28T00:10:51.823Z,10.63
2018-08-28T00:13:22.096Z,11.47
2018-08-28T00:15:52.822Z,12.10
2018-08-28T00:18:23.093Z,11.80
2018-08-28T00:20:55.906Z,12.83
2018-08-28T00:23:26.995Z,13.27
2018-08-28T00:25:57.723Z,13.77
2018-08-28T00:28:28.896Z,19.50
2018-08-28T00:31:00.607Z,13.37
2018-08-28T00:33:30.150Z,20.20
2018-08-28T00:35:59.444Z,16.60
2018-08-28T00:38:31.020Z,13.53
2018-08-28T00:41:01.559Z,14.93
2018-08-28T00:43:31.253Z,15.13
2018-08-28T00:46:03.002Z,12.57
2018-08-28T00:48:35.006Z,13.47
2018-08-28T00:51:06.630Z,11.47
2018-08-28T00:53:38.670Z,13.67
2018-08-28T00:56:08.267Z,12.87
2018-08-28T00:58:40.996Z,16.30
2018-08-28T01:01:13.004Z,14.47
2018-08-28T01:03:43.726Z,19.20
2018-08-28T01:06:15.560Z,14.67
2018-08-28T01:08:45.796Z,12.07
2018-08-28T01:11:15.770Z,16.07
2018-08-28T01:13:45.942Z,14.23
2018-08-28T01:16:16.855Z,14.13
2018-08-28T01:18:47.806Z,15.70
2018-08-28T01:21:18.475Z,14.83
2018-08-28T01:23:50.026Z,15.17
2018-08-28T01:26:21.962Z,17.60
2018-08-28T01:28:53.143Z,12.70
2018-08-28T01:31:23.046Z,15.47
2018-08-28T01:33:52.839Z,18.60
2018-08-28T01:36:23.830Z,13.53
2018-08-28T01:38:54.834Z,18.80
2018-08-28T01:41:25.483Z,15.13
2018-08-28T01:43:56.751Z,14.00
2018-08-28T01:46:26.937Z,15.63
2018-08-28T01:48:57.719Z,13.43
2018-08-28T01:51:27.817Z,18.60
2018-08-28T01:53:59.831Z,17.20
2018-08-28T01:56:29.951Z,13.93
2018-08-28T01:59:02.408Z,16.80
2018-08-28T02:01:33.846Z,16.83
2018-08-28T02:04:04.846Z,14.07
2018-08-28T02:06:36.038Z,13.60
2018-08-28T02:09:06.838Z,15.60
2018-08-28T02:11:37.284Z,13.43
2018-08-28T02:14:09.291Z,12.43
2018-08-28T02:16:40.866Z,13.07
2018-08-28T02:19:10.631Z,16.30
2018-08-28T02:21:40.718Z,13.47
2018-08-28T02:24:11.690Z,14.60
2018-08-28T02:26:42.703Z,15.40
2018-08-28T02:29:13.464Z,19.00
2018-08-28T02:31:43.291Z,16.00
2018-08-28T02:34:13.590Z,13.53
2018-08-28T02:36:44.691Z,12.30
2018-08-28T02:39:16.307Z,15.20
2018-08-28T02:41:48.731Z,17.77
2018-08-28T02:44:18.963Z,13.67
2018-08-28T02:46:49.991Z,13.97
2018-08-28T02:49:19.948Z,16.80
2018-08-28T02:51:50.571Z,13.57
2018-08-28T02:54:20.450Z,14.47
2018-08-28T02:56:50.820Z,16.20
2018-08-28T02:59:21.083Z,14.63
2018-08-28T03:01:51.739Z,17.33
2018-08-28T03:04:22.642Z,13.87
2018-08-28T03:06:57.020Z,15.57
2018-08-28T03:09:28.267Z,20.70
2018-08-28T03:11:58.847Z,19.67
2018-08-28T03:14:29.902Z,16.20
2018-08-28T03:17:00.810Z,14.90
2018-08-28T03:19:30.666Z,13.73
2018-08-28T03:22:01.204Z,16.90
2018-08-28T03:24:30.603Z,16.53
2018-08-28T03:27:00.990Z,17.37
2018-08-28T03:29:32.111Z,21.80
2018-08-28T03:32:02.627Z,15.27
2018-08-28T03:34:33.414Z,15.63
2018-08-28T03:37:04.882Z,16.67
2018-08-28T03:39:35.930Z,19.00
2018-08-28T03:42:06.715Z,16.70
2018-08-28T03:44:37.344Z,17.90
2018-08-28T03:47:08.743Z,13.30
2018-08-28T03:49:39.716Z,19.27
2018-08-28T03:52:10.834Z,17.27
2018-08-28T03:54:43.370Z,15.00
2018-08-28T03:57:13.686Z,16.67
2018-08-28T03:59:44.638Z,14.97
2018-08-28T04:02:14.730Z,16.97
2018-08-28T04:04:45.465Z,16.50
2018-08-28T04:07:16.832Z,16.73
2018-08-28T04:09:47.983Z,17.77
2018-08-28T04:12:18.331Z,18.70
2018-08-28T04:14:48.486Z,18.73
2018-08-28T04:17:19.748Z,17.77
2018-08-28T04:19:48.814Z,14.70
2018-08-28T04:22:18.644Z,20.37
2018-08-28T04:24:49.410Z,18.10
2018-08-28T04:27:19.977Z,14.87
2018-08-28T04:29:50.790Z,17.43
2018-08-28T04:32:21.974Z,21.50
2018-08-28T04:34:52.415Z,17.50
2018-08-28T04:37:22.946Z,20.10
2018-08-28T04:39:54.750Z,16.13
2018-08-28T04:42:25.143Z,18.90
2018-08-28T04:44:55.587Z,19.60
2018-08-28T04:47:26.149Z,15.47
2018-08-28T04:49:57.808Z,18.47
2018-08-28T04:52:27.818Z,15.03
2018-08-28T04:54:57.212Z,15.60
2018-08-28T04:57:27.489Z,17.87
2018-08-28T04:59:57.806Z,19.83
2018-08-28T05:02:32.962Z,17.33
2018-08-28T05:05:05.031Z,16.87
2018-08-28T05:07:35.176Z,15.57
2018-08-28T05:10:06.086Z,15.33
2018-08-28T05:12:36.734Z,17.60
2018-08-28T05:15:07.556Z,15.13
2018-08-28T05:17:37.118Z,18.43
2018-08-28T05:20:08.362Z,14.40
2018-08-28T05:22:38.058Z,18.83
2018-08-28T05:25:07.639Z,15.97
2018-08-28T05:27:37.870Z,16.73
2018-08-28T05:30:08.994Z,17.30
2018-08-28T05:32:41.007Z,14.63
2018-08-28T05:35:10.926Z,15.70
2018-08-28T05:37:40.995Z,14.33
2018-08-28T05:40:11.202Z,17.50
2018-08-28T05:42:41.922Z,18.67
2018-08-28T05:45:11.314Z,14.90
2018-08-28T05:47:42.077Z,16.17
2018-08-28T05:50:11.724Z,16.57
2018-08-28T05:52:42.674Z,18.73
2018-08-28T05:55:12.551Z,16.10
2018-08-28T05:57:41.990Z,18.67
2018-08-28T06:00:11.750Z,17.67
2018-08-28T06:02:42.769Z,18.90
2018-08-28T06:05:12.818Z,14.23
2018-08-28T06:07:43.795Z,16.63
2018-08-28T06:10:14.359Z,17.30
2018-08-28T06:12:45.584Z,15.90
2018-08-28T06:15:15.886Z,14.37
2018-08-28T06:17:47.319Z,18.60
2018-08-28T06:20:17.286Z,17.13
2018-08-28T06:22:49.098Z,18.27
2018-08-28T06:25:19.847Z,18.90
2018-08-28T06:27:49.463Z,14.63
2018-08-28T06:30:19.718Z,18.00
2018-08-28T06:32:50.635Z,23.40
2018-08-28T06:35:20.894Z,14.57
2018-08-28T06:37:50.732Z,15.33
2018-08-28T06:40:20.676Z,22.17
2018-08-28T06:42:50.454Z,19.67
2018-08-28T06:45:21.987Z,16.50
2018-08-28T06:47:53.021Z,21.90
2018-08-28T06:50:23.407Z,18.60
2018-08-28T06:52:53.099Z,20.33
2018-08-28T06:55:23.318Z,20.43
2018-08-28T06:57:54.341Z,18.23
2018-08-28T07:00:23.967Z,17.70
2018-08-28T07:02:53.778Z,18.40
2018-08-28T07:05:23.882Z,20.40
2018-08-28T07:07:54.231Z,22.13
2018-08-28T07:10:25.426Z,20.27
2018-08-28T07:12:55.890Z,19.47
2018-08-28T07:15:26.414Z,18.27
2018-08-28T07:17:56.029Z,19.30
2018-08-28T07:20:27.734Z,19.10
2018-08-28T07:22:57.664Z,20.17
2018-08-28T07:25:28.145Z,18.97
2018-08-28T07:27:57.591Z,16.67
2018-08-28T07:30:27.036Z,18.07
2018-08-28T07:32:56.914Z,15.90
2018-08-28T07:35:26.792Z,17.43
2018-08-28T07:37:57.847Z,15.83
2018-08-28T07:40:28.938Z,18.23
2018-08-28T07:43:01.057Z,18.07
2018-08-28T07:45:31.166Z,18.37
2018-08-28T07:48:01.938Z,14.57
2018-08-28T07:50:31.723Z,13.90
2018-08-28T07:53:02.850Z,17.77
2018-08-28T07:55:34.554Z,12.87
2018-08-28T07:58:04.806Z,14.87
2018-08-28T08:00:35.559Z,11.53
2018-08-28T08:03:05.177Z,12.87
2018-08-28T08:05:35.791Z,13.17
2018-08-28T08:08:07.412Z,13.60
2018-08-28T08:10:37.958Z,14.47
2018-08-28T08:13:10.212Z,17.00
2018-08-28T08:15:40.604Z,10.93
2018-08-28T08:18:10.886Z,13.17
2018-08-28T08:20:41.905Z,13.60
2018-08-28T08:23:11.374Z,15.17
2018-08-28T08:25:49.114Z,10.13
2018-08-28T08:28:19.890Z,12.70
2018-08-28T08:30:49.323Z,14.60
2018-08-28T08:33:19.065Z,9.30
2018-08-28T08:35:49.460Z,10.77
2018-08-28T08:38:21.863Z,11.70
2018-08-28T08:40:52.566Z,13.73
2018-08-28T08:43:22.817Z,12.50
2018-08-28T08:45:52.531Z,11.37
2018-08-28T08:48:24.215Z,11.53
2018-08-28T08:50:54.967Z,12.20
2018-08-28T08:53:24.922Z,10.73
2018-08-28T08:55:55.939Z,10.20
2018-08-28T08:58:26.983Z,10.17
2018-08-28T09:00:57.605Z,9.83
2018-08-28T09:03:28.411Z,8.73
2018-08-28T09:05:59.636Z,9.97
2018-08-28T09:08:31.527Z,10.77
2018-08-28T09:11:01.195Z,8.63
2018-08-28T09:13:32.477Z,12.33
2018-08-28T09:16:02.169Z,12.03
2018-08-28T09:18:32.680Z,9.73
2018-08-28T09:21:03.031Z,11.57
2018-08-28T09:23:34.625Z,12.20
2018-08-28T09:26:04.479Z,11.77
2018-08-28T09:28:35.907Z,14.90
2018-08-28T09:31:05.688Z,12.97
2018-08-28T09:33:35.558Z,9.40
2018-08-28T09:36:05.039Z,13.70
2018-08-28T09:38:37.054Z,10.63
2018-08-28T09:41:06.426Z,12.47
2018-08-28T09:43:36.797Z,10.60
2018-08-28T09:46:06.694Z,11.60
2018-08-28T09:48:36.723Z,13.70
2018-08-28T09:51:06.319Z,12.87
2018-08-28T09:53:36.435Z,9.80
2018-08-28T09:56:08.427Z,13.13
2018-08-28T09:58:38.750Z,14.23
2018-08-28T10:01:14.025Z,13.40
2018-08-28T10:03:44.387Z,13.77
2018-08-28T10:06:15.100Z,13.63
2018-08-28T10:08:44.478Z,13.57
2018-08-28T10:11:13.976Z,12.97
2018-08-28T10:13:43.697Z,12.07
2018-08-28T10:16:14.806Z,12.63
2018-08-28T10:18:45.651Z,9.50
2018-08-28T10:21:15.808Z,12.40
2018-08-28T10:23:46.423Z,10.53
2018-08-28T10:26:16.098Z,12.53
2018-08-28T10:28:47.839Z,12.67
2018-08-28T10:31:18.718Z,10.23
2018-08-28T10:33:49.581Z,10.77
2018-08-28T10:36:20.007Z,12.80
2018-08-28T10:38:50.299Z,13.17
2018-08-28T10:41:21.167Z,9.67
2018-08-28T10:43:51.134Z,9.70
2018-08-28T10:46:22.107Z,11.20
2018-08-28T10:48:52.242Z,14.60
2018-08-28T10:51:21.746Z,13.63
2018-08-28T10:53:51.943Z,11.00
2018-08-28T10:56:23.757Z,11.13
2018-08-28T10:58:53.397Z,10.40
2018-08-28T11:01:22.555Z,11.87
2018-08-28T11:03:52.917Z,14.10
2018-08-28T11:06:23.426Z,9.90
2018-08-28T11:08:53.622Z,12.20
2018-08-28T11:11:24.922Z,13.90
2018-08-28T11:13:57.670Z,14.03
2018-08-28T11:16:28.783Z,9.40
2018-08-28T11:18:59.741Z,9.13
2018-08-28T11:21:30.040Z,10.17
2018-08-28T11:24:00.533Z,11.53
2018-08-28T11:26:30.370Z,9.77
2018-08-28T11:29:01.045Z,9.40
2018-08-28T11:31:31.848Z,10.47
2018-08-28T11:34:01.146Z,9.10
2018-08-28T11:36:30.488Z,10.87
2018-08-28T11:39:01.058Z,12.80
2018-08-28T11:41:32.058Z,13.90
2018-08-28T11:44:02.970Z,11.23
2018-08-28T11:46:34.426Z,10.53
2018-08-28T11:49:05.128Z,11.17
2018-08-28T11:51:34.871Z,12.70
2018-08-28T11:54:06.437Z,10.47
2018-08-28T11:56:36.522Z,13.23
2018-08-28T11:59:06.946Z,12.67
2018-08-28T12:01:37.350Z,14.20
2018-08-28T12:04:07.378Z,9.20
2018-08-28T12:06:37.165Z,9.57
2018-08-28T12:09:14.014Z,11.33
2018-08-28T12:11:45.509Z,10.33
2018-08-28T12:14:15.350Z,10.90
2018-08-28T12:16:46.430Z,9.60
2018-08-28T12:19:17.124Z,13.07
2018-08-28T12:21:47.276Z,10.80
2018-08-28T12:24:18.378Z,11.33
2018-08-28T12:26:48.365Z,13.80
2018-08-28T12:29:18.602Z,11.97
2018-08-28T12:31:49.499Z,10.23
2018-08-28T12:34:19.431Z,9.80
2018-08-28T12:36:50.715Z,12.57
2018-08-28T12:39:20.275Z,11.83
2018-08-28T12:41:51.027Z,10.80
2018-08-28T12:44:22.631Z,9.93
2018-08-28T12:46:53.750Z,10.40
2018-08-28T12:49:23.843Z,12.83
2018-08-28T12:51:55.779Z,10.20
2018-08-28T12:54:28.131Z,12.73
2018-08-28T12:56:57.425Z,10.97
2018-08-28T12:59:28.783Z,10.90
2018-08-28T13:02:00.875Z,11.07
2018-08-28T13:04:31.784Z,14.87
2018-08-28T13:07:01.859Z,11.90
2018-08-28T13:09:33.676Z,15.03
2018-08-28T13:12:04.278Z,11.00
2018-08-28T13:14:34.381Z,10.13
2018-08-28T13:17:04.505Z,14.77
2018-08-28T13:19:39.360Z,11.97
2018-08-28T13:22:09.871Z,10.57
2018-08-28T13:24:40.047Z,9.77
2018-08-28T13:27:10.370Z,11.93
2018-08-28T13:29:40.889Z,12.40
2018-08-28T13:32:12.015Z,13.13
2018-08-28T13:34:42.917Z,12.97
2018-08-28T13:37:14.300Z,13.13
2018-08-28T13:39:44.602Z,11.40
2018-08-28T13:42:14.231Z,13.17
2018-08-28T13:44:43.847Z,12.37
2018-08-28T13:47:15.611Z,11.33
2018-08-28T13:49:47.391Z,12.67
2018-08-28T13:52:16.742Z,10.63
2018-08-28T13:54:46.621Z,11.87
2018-08-28T13:57:18.386Z,11.47
2018-08-28T13:59:49.987Z,14.30
2018-08-28T14:02:20.331Z,15.20
2018-08-28T14:04:49.946Z,11.80
2018-08-28T14:07:20.841Z,15.20
2018-08-28T14:09:50.620Z,10.37
2018-08-28T14:12:20.229Z,13.23
2018-08-28T14:14:51.143Z,14.33
2018-08-28T14:17:21.555Z,10.93
2018-08-28T14:19:53.183Z,12.67
2018-08-28T14:22:24.524Z,15.60
2018-08-28T14:24:54.307Z,12.47
2018-08-28T14:27:24.816Z,11.73
2018-08-28T14:29:55.230Z,11.50
2018-08-28T14:32:24.692Z,13.13
2018-08-28T14:34:54.666Z,12.23
2018-08-28T14:37:23.850Z,13.60
2018-08-28T14:39:53.572Z,13.10
2018-08-28T14:42:23.530Z,9.87
2018-08-28T14:44:53.551Z,11.57
2018-08-28T14:47:23.351Z,11.90
2018-08-28T14:49:54.340Z,13.27
2018-08-28T14:52:23.761Z,12.07
2018-08-28T14:54:52.998Z,11.57
2018-08-28T14:57:22.680Z,14.73
2018-08-28T14:59:52.048Z,12.57
2018-08-28T15:02:23.395Z,13.30
2018-08-28T15:04:52.965Z,13.20
2018-08-28T15:07:23.848Z,11.57
2018-08-28T15:09:55.399Z,13.50
2018-08-28T15:12:25.753Z,11.47
2018-08-28T15:14:57.531Z,14.97
2018-08-28T15:17:27.615Z,12.13
2018-08-28T15:19:58.963Z,11.17
2018-08-28T15:23:32.966Z,12.40
2018-08-28T15:26:04.051Z,11.43
2018-08-28T15:28:34.031Z,11.47
2018-08-28T15:31:04.161Z,12.00
2018-08-28T15:33:34.075Z,12.37
2018-08-28T15:36:03.603Z,14.90
2018-08-28T15:38:34.130Z,13.67
2018-08-28T15:41:03.706Z,12.57
2018-08-28T15:43:35.473Z,11.20
2018-08-28T15:46:05.776Z,12.63
2018-08-28T15:48:35.383Z,11.23
2018-08-28T15:51:05.270Z,11.27
2018-08-28T15:53:35.423Z,10.07
2018-08-28T15:56:04.934Z,9.70
2018-08-28T15:58:34.783Z,13.27
2018-08-28T16:01:04.446Z,10.70
2018-08-28T16:03:35.511Z,14.40
2018-08-28T16:06:05.309Z,13.70
2018-08-28T16:08:35.466Z,10.47
2018-08-28T16:11:06.699Z,13.13
2018-08-28T16:13:37.609Z,13.37
2018-08-28T16:16:07.546Z,14.27
2018-08-28T16:18:38.454Z,14.90
2018-08-28T16:21:08.798Z,11.00
2018-08-28T16:23:40.599Z,14.17
2018-08-28T16:26:12.610Z,13.60
2018-08-28T16:28:43.415Z,11.30
2018-08-28T16:31:13.363Z,15.50
2018-08-28T16:33:44.907Z,12.43
2018-08-28T16:36:16.322Z,13.17
2018-08-28T16:38:46.393Z,16.07
2018-08-28T16:41:16.308Z,11.57
2018-08-28T16:43:47.937Z,13.60
2018-08-28T16:46:19.566Z,12.73
2018-08-28T16:48:50.709Z,11.63
2018-08-28T16:51:20.603Z,12.93
2018-08-28T16:53:51.582Z,13.07
2018-08-28T16:56:23.381Z,13.57
2018-08-28T16:58:53.608Z,14.63
2018-08-28T17:01:25.517Z,11.77
2018-08-28T17:03:55.419Z,12.70
2018-08-28T17:06:24.871Z,11.10
2018-08-28T17:08:55.104Z,10.73
2018-08-28T17:11:25.219Z,11.47
2018-08-28T17:13:56.472Z,11.80
2018-08-28T17:16:26.694Z,10.90
2018-08-28T17:18:58.657Z,11.40
2018-08-28T17:21:29.347Z,12.87
2018-08-28T17:24:00.429Z,12.43
2018-08-28T17:26:31.523Z,15.23
2018-08-28T17:29:01.764Z,15.47
2018-08-28T17:34:06.350Z,10.97
2018-08-28T17:36:36.526Z,12.33
2018-08-28T17:39:07.425Z,18.37
2018-08-28T17:41:37.326Z,12.67
2018-08-28T17:44:07.694Z,11.70
2018-08-28T17:46:38.282Z,12.10
2018-08-28T17:49:09.261Z,13.63
2018-08-28T17:51:39.502Z,13.17
2018-08-28T17:54:10.462Z,12.07
2018-08-28T17:56:42.588Z,13.80
2018-08-28T17:59:12.094Z,15.30
2018-08-28T18:01:43.662Z,11.53
2018-08-28T18:04:14.193Z,12.10
2018-08-28T18:06:44.488Z,12.53
2018-08-28T18:09:16.477Z,11.60
2018-08-28T18:11:47.738Z,12.37
2018-08-28T18:14:19.519Z,12.80
2018-08-28T18:16:49.755Z,13.23
2018-08-28T18:19:19.441Z,11.33
2018-08-28T18:21:50.199Z,13.50
2018-08-28T18:24:20.397Z,14.87
2018-08-28T18:26:50.762Z,14.40
2018-08-28T18:29:21.698Z,13.80
2018-08-28T18:31:53.418Z,12.73
2018-08-28T18:34:24.322Z,13.00
2018-08-28T18:36:54.766Z,14.00
2018-08-28T18:39:25.007Z,14.67
2018-08-28T18:41:55.812Z,14.97
2018-08-28T18:44:27.353Z,15.37
2018-08-28T18:46:57.996Z,16.17
2018-08-28T18:49:28.661Z,13.43
2018-08-28T18:51:59.806Z,14.03
2018-08-28T18:54:30.495Z,16.37
2018-08-28T18:57:01.671Z,16.53
2018-08-28T18:59:33.139Z,14.47
2018-08-28T19:02:03.093Z,17.93
2018-08-28T19:04:32.802Z,17.07
2018-08-28T19:07:03.461Z,14.97
2018-08-28T19:09:33.183Z,13.57
2018-08-28T19:12:02.395Z,13.00
2018-08-28T19:14:32.083Z,15.23
2018-08-28T19:17:01.489Z,15.97
2018-08-28T19:19:31.998Z,15.83
2018-08-28T19:22:02.542Z,15.70
2018-08-28T19:24:31.974Z,14.20
2018-08-28T19:27:04.131Z,16.00
2018-08-28T19:29:34.270Z,14.60
2018-08-28T19:32:04.722Z,12.60
2018-08-28T19:34:33.870Z,14.00
2018-08-28T19:37:05.941Z,14.67
2018-08-28T19:39:36.390Z,13.67
2018-08-28T19:42:06.142Z,13.20
2018-08-28T19:47:14.262Z,15.23
2018-08-28T19:49:44.292Z,12.20
2018-08-28T19:52:14.815Z,12.20
2018-08-28T19:54:45.191Z,18.70
2018-08-28T19:57:15.543Z,13.57
2018-08-28T19:59:45.196Z,12.73
2018-08-28T20:02:16.642Z,12.97
2018-08-28T20:04:47.330Z,15.17
2018-08-28T20:07:17.658Z,13.30
2018-08-28T20:09:48.403Z,13.70
2018-08-28T20:12:18.740Z,14.97
2018-08-28T20:14:49.607Z,12.47
2018-08-28T20:17:20.850Z,12.20
2018-08-28T20:19:51.335Z,17.47
2018-08-28T20:22:23.038Z,16.20
2018-08-28T20:24:55.555Z,13.53
2018-08-28T20:27:27.878Z,12.10
2018-08-28T20:29:57.190Z,14.17
2018-08-28T20:32:27.361Z,12.17
2018-08-28T20:34:57.419Z,12.17
2018-08-28T20:37:27.482Z,15.70
2018-08-28T20:39:58.034Z,11.07
2018-08-28T20:42:30.139Z,13.63
2018-08-28T20:45:00.070Z,10.60
2018-08-28T20:47:29.842Z,11.87
2018-08-28T20:50:00.189Z,14.43
2018-08-28T20:52:29.382Z,13.93
2018-08-28T20:54:59.415Z,11.80
2018-08-28T20:57:29.694Z,12.37
2018-08-28T21:00:00.486Z,13.43
2018-08-28T21:02:30.270Z,12.07
2018-08-28T21:05:00.967Z,12.47
2018-08-28T21:07:31.666Z,8.97
2018-08-28T21:10:02.967Z,12.67
2018-08-28T21:12:34.569Z,13.10
2018-08-28T21:15:04.710Z,10.23
2018-08-28T21:17:35.750Z,10.90
2018-08-28T21:20:07.123Z,12.13
2018-08-28T21:22:37.426Z,14.43
2018-08-28T21:25:08.523Z,9.30
2018-08-28T21:27:38.706Z,11.23
2018-08-28T21:30:08.557Z,11.63
2018-08-28T21:32:38.544Z,9.90
2018-08-28T21:35:09.520Z,10.97
2018-08-28T21:37:39.343Z,13.23
2018-08-28T21:40:09.435Z,11.17
2018-08-28T21:42:40.523Z,11.57
2018-08-28T21:45:11.727Z,11.13
2018-08-28T21:47:42.300Z,14.53
2018-08-28T21:50:12.441Z,12.53
2018-08-28T21:52:41.883Z,13.47
2018-08-28T21:55:11.778Z,10.03
2018-08-28T21:57:42.782Z,12.97
2018-08-28T22:00:13.529Z,14.47
2018-08-28T22:02:43.790Z,13.50
2018-08-28T22:05:13.609Z,11.73
2018-08-28T22:07:44.091Z,10.77
2018-08-28T22:10:13.759Z,12.23
2018-08-28T22:12:44.497Z,12.10
2018-08-28T22:15:14.816Z,11.50
2018-08-28T22:17:46.822Z,13.90
2018-08-28T22:20:17.210Z,12.53
2018-08-28T22:22:46.986Z,9.67
2018-08-28T22:25:17.375Z,12.53
2018-08-28T22:27:47.773Z,11.87
2018-08-28T22:30:18.478Z,15.07
2018-08-28T22:32:50.057Z,12.43
2018-08-28T22:35:21.018Z,10.17
2018-08-28T22:37:51.725Z,11.80
2018-08-28T22:40:21.210Z,11.50
2018-08-28T22:42:52.374Z,11.90
2018-08-28T22:45:23.236Z,12.63
2018-08-28T22:47:52.696Z,11.30
2018-08-28T22:50:21.793Z,11.73
2018-08-28T22:52:52.442Z,12.27
2018-08-28T22:55:23.595Z,11.03
2018-08-28T22:57:53.802Z,10.77
2018-08-28T23:00:23.790Z,13.87
2018-08-28T23:02:55.151Z,12.53
2018-08-28T23:05:25.915Z,15.40
2018-08-28T23:07:55.879Z,12.77
2018-08-28T23:10:26.186Z,15.60
2018-08-28T23:12:56.448Z,11.53
2018-08-28T23:15:26.586Z,10.27
2018-08-28T23:17:57.425Z,12.67
2018-08-28T23:20:27.771Z,11.03
2018-08-28T23:22:57.405Z,12.67
2018-08-28T23:25:27.914Z,14.97
2018-08-28T23:27:58.115Z,10.30
2018-08-28T23:30:29.087Z,11.93
2018-08-28T23:32:58.951Z,13.57
2018-08-28T23:35:31.234Z,11.73
2018-08-28T23:38:01.860Z,14.07
2018-08-28T23:40:33.842Z,13.23
2018-08-28T23:43:04.189Z,12.53
2018-08-28T23:45:34.435Z,11.70
2018-08-28T23:48:05.430Z,10.70
2018-08-28T23:50:36.358Z,13.20
2018-08-28T23:53:06.302Z,13.87
2018-08-28T23:55:35.742Z,11.63
2018-08-28T23:58:07.390Z,11.40
